sensor_id;sensor_type;location;lat;lon;timestamp;P1;durP1;ratioP1;P2;durP2;ratioP2
8488;SDS011;4281;45.772;12.852;2023-07-31T00:00:56;1.60;;;1.50;;
8488;SDS011;4281;45.772;12.852;2023-07-31T00:03:24;2.37;;;1.83;;
8488;SDS011;4281;45.772;12.852;2023-07-31T00:05:53;2.30;;;1.70;;
8488;SDS011;4281;45.772;12.852;2023-07-31T00:08:22;1.83;;;1.53;;
8488;SDS011;4281;45.772;12.852;2023-07-31T00:10:51;1.70;;;1.60;;
8488;SDS011;4281;45.772;12.852;2023-07-31T00:13:19;2.13;;;1.60;;
8488;SDS011;4281;45.772;12.852;2023-07-31T00:15:47;1.93;;;1.83;;
8488;SDS011;4281;45.772;12.852;2023-07-31T00:18:15;3.23;;;1.60;;
8488;SDS011;4281;45.772;12.852;2023-07-31T00:20:43;2.07;;;1.67;;
8488;SDS011;4281;45.772;12.852;2023-07-31T00:23:12;2.10;;;1.90;;
8488;SDS011;4281;45.772;12.852;2023-07-31T00:25:41;2.07;;;1.83;;
8488;SDS011;4281;45.772;12.852;2023-07-31T00:28:09;2.40;;;1.80;;
8488;SDS011;4281;45.772;12.852;2023-07-31T00:30:37;1.77;;;1.67;;
8488;SDS011;4281;45.772;12.852;2023-07-31T00:33:06;1.93;;;1.80;;
8488;SDS011;4281;45.772;12.852;2023-07-31T00:35:35;2.70;;;1.93;;
8488;SDS011;4281;45.772;12.852;2023-07-31T00:38:03;2.20;;;1.70;;
8488;SDS011;4281;45.772;12.852;2023-07-31T00:40:35;2.60;;;1.90;;
8488;SDS011;4281;45.772;12.852;2023-07-31T00:43:04;2.03;;;1.80;;
8488;SDS011;4281;45.772;12.852;2023-07-31T00:45:32;2.03;;;1.83;;
8488;SDS011;4281;45.772;12.852;2023-07-31T00:48:00;2.93;;;1.90;;
8488;SDS011;4281;45.772;12.852;2023-07-31T00:50:28;2.63;;;2.00;;
8488;SDS011;4281;45.772;12.852;2023-07-31T00:52:57;1.87;;;1.67;;
8488;SDS011;4281;45.772;12.852;2023-07-31T00:55:25;3.10;;;1.90;;
8488;SDS011;4281;45.772;12.852;2023-07-31T00:57:54;3.60;;;1.67;;
8488;SDS011;4281;45.772;12.852;2023-07-31T01:00:23;2.20;;;1.60;;
8488;SDS011;4281;45.772;12.852;2023-07-31T01:02:51;1.80;;;1.67;;
8488;SDS011;4281;45.772;12.852;2023-07-31T01:05:20;2.33;;;1.67;;
8488;SDS011;4281;45.772;12.852;2023-07-31T01:07:54;2.13;;;1.90;;
8488;SDS011;4281;45.772;12.852;2023-07-31T01:10:25;2.10;;;1.90;;
8488;SDS011;4281;45.772;12.852;2023-07-31T01:12:56;1.93;;;1.83;;
8488;SDS011;4281;45.772;12.852;2023-07-31T01:15:25;3.17;;;1.77;;
8488;SDS011;4281;45.772;12.852;2023-07-31T01:17:52;2.97;;;1.67;;
8488;SDS011;4281;45.772;12.852;2023-07-31T01:20:21;3.37;;;1.60;;
8488;SDS011;4281;45.772;12.852;2023-07-31T01:23:08;3.20;;;1.93;;
8488;SDS011;4281;45.772;12.852;2023-07-31T01:25:50;2.67;;;2.03;;
8488;SDS011;4281;45.772;12.852;2023-07-31T01:28:23;2.40;;;2.20;;
8488;SDS011;4281;45.772;12.852;2023-07-31T01:30:57;2.37;;;1.87;;
8488;SDS011;4281;45.772;12.852;2023-07-31T01:33:26;1.93;;;1.83;;
8488;SDS011;4281;45.772;12.852;2023-07-31T01:35:55;4.27;;;2.20;;
8488;SDS011;4281;45.772;12.852;2023-07-31T01:38:23;2.10;;;1.90;;
8488;SDS011;4281;45.772;12.852;2023-07-31T01:40:53;3.30;;;2.20;;
8488;SDS011;4281;45.772;12.852;2023-07-31T01:43:21;2.77;;;2.37;;
8488;SDS011;4281;45.772;12.852;2023-07-31T01:45:50;1.93;;;1.83;;
8488;SDS011;4281;45.772;12.852;2023-07-31T01:48:18;2.37;;;2.17;;
8488;SDS011;4281;45.772;12.852;2023-07-31T01:50:46;2.67;;;2.47;;
8488;SDS011;4281;45.772;12.852;2023-07-31T01:53:14;2.10;;;1.90;;
8488;SDS011;4281;45.772;12.852;2023-07-31T01:55:42;2.27;;;2.07;;
8488;SDS011;4281;45.772;12.852;2023-07-31T01:58:11;2.90;;;2.40;;
8488;SDS011;4281;45.772;12.852;2023-07-31T02:00:39;2.10;;;2.00;;
8488;SDS011;4281;45.772;12.852;2023-07-31T02:03:07;2.10;;;1.90;;
8488;SDS011;4281;45.772;12.852;2023-07-31T02:05:36;2.83;;;1.70;;
8488;SDS011;4281;45.772;12.852;2023-07-31T02:08:04;2.27;;;2.07;;
8488;SDS011;4281;45.772;12.852;2023-07-31T02:10:32;2.43;;;2.23;;
8488;SDS011;4281;45.772;12.852;2023-07-31T02:13:00;2.33;;;2.00;;
8488;SDS011;4281;45.772;12.852;2023-07-31T02:15:31;2.97;;;2.17;;
8488;SDS011;4281;45.772;12.852;2023-07-31T02:17:59;2.70;;;2.10;;
8488;SDS011;4281;45.772;12.852;2023-07-31T02:20:27;2.47;;;2.07;;
8488;SDS011;4281;45.772;12.852;2023-07-31T02:22:55;3.00;;;2.20;;
8488;SDS011;4281;45.772;12.852;2023-07-31T02:25:23;2.20;;;1.93;;
8488;SDS011;4281;45.772;12.852;2023-07-31T02:27:51;2.30;;;2.10;;
8488;SDS011;4281;45.772;12.852;2023-07-31T02:30:19;1.83;;;1.70;;
8488;SDS011;4281;45.772;12.852;2023-07-31T02:32:48;4.43;;;2.20;;
8488;SDS011;4281;45.772;12.852;2023-07-31T02:35:16;1.90;;;1.80;;
8488;SDS011;4281;45.772;12.852;2023-07-31T02:37:45;2.17;;;1.93;;
8488;SDS011;4281;45.772;12.852;2023-07-31T02:40:13;3.60;;;2.00;;
8488;SDS011;4281;45.772;12.852;2023-07-31T02:42:41;1.90;;;1.80;;
8488;SDS011;4281;45.772;12.852;2023-07-31T02:45:09;2.37;;;1.73;;
8488;SDS011;4281;45.772;12.852;2023-07-31T02:47:37;2.00;;;1.80;;
8488;SDS011;4281;45.772;12.852;2023-07-31T02:50:06;1.93;;;1.73;;
8488;SDS011;4281;45.772;12.852;2023-07-31T02:52:35;2.07;;;1.80;;
8488;SDS011;4281;45.772;12.852;2023-07-31T02:55:03;1.73;;;1.60;;
8488;SDS011;4281;45.772;12.852;2023-07-31T02:57:31;2.70;;;1.60;;
8488;SDS011;4281;45.772;12.852;2023-07-31T02:59:59;2.53;;;1.70;;
8488;SDS011;4281;45.772;12.852;2023-07-31T03:02:27;1.67;;;1.57;;
8488;SDS011;4281;45.772;12.852;2023-07-31T03:04:55;1.80;;;1.63;;
8488;SDS011;4281;45.772;12.852;2023-07-31T03:07:24;1.97;;;1.70;;
8488;SDS011;4281;45.772;12.852;2023-07-31T03:09:52;2.50;;;1.50;;
8488;SDS011;4281;45.772;12.852;2023-07-31T03:12:20;2.67;;;1.60;;
8488;SDS011;4281;45.772;12.852;2023-07-31T03:14:47;2.30;;;1.80;;
8488;SDS011;4281;45.772;12.852;2023-07-31T03:17:15;3.23;;;1.40;;
8488;SDS011;4281;45.772;12.852;2023-07-31T03:19:43;1.70;;;1.50;;
8488;SDS011;4281;45.772;12.852;2023-07-31T03:22:11;2.13;;;1.47;;
8488;SDS011;4281;45.772;12.852;2023-07-31T03:24:40;1.70;;;1.60;;
8488;SDS011;4281;45.772;12.852;2023-07-31T03:27:08;1.70;;;1.60;;
8488;SDS011;4281;45.772;12.852;2023-07-31T03:29:36;2.57;;;1.40;;
8488;SDS011;4281;45.772;12.852;2023-07-31T03:32:04;2.50;;;1.63;;
8488;SDS011;4281;45.772;12.852;2023-07-31T03:34:32;2.37;;;1.20;;
8488;SDS011;4281;45.772;12.852;2023-07-31T03:37:00;1.40;;;1.30;;
8488;SDS011;4281;45.772;12.852;2023-07-31T03:39:28;1.70;;;1.60;;
8488;SDS011;4281;45.772;12.852;2023-07-31T03:41:57;1.77;;;1.50;;
8488;SDS011;4281;45.772;12.852;2023-07-31T03:44:25;1.50;;;1.40;;
8488;SDS011;4281;45.772;12.852;2023-07-31T03:46:53;1.50;;;1.40;;
8488;SDS011;4281;45.772;12.852;2023-07-31T03:49:21;1.30;;;1.20;;
8488;SDS011;4281;45.772;12.852;2023-07-31T03:51:49;1.73;;;1.40;;
8488;SDS011;4281;45.772;12.852;2023-07-31T03:54:17;1.37;;;1.20;;
8488;SDS011;4281;45.772;12.852;2023-07-31T03:56:45;2.23;;;1.60;;
8488;SDS011;4281;45.772;12.852;2023-07-31T03:59:14;1.40;;;1.30;;
8488;SDS011;4281;45.772;12.852;2023-07-31T04:01:42;1.60;;;1.50;;
8488;SDS011;4281;45.772;12.852;2023-07-31T04:04:10;1.67;;;1.40;;
8488;SDS011;4281;45.772;12.852;2023-07-31T04:06:38;1.67;;;1.30;;
8488;SDS011;4281;45.772;12.852;2023-07-31T04:09:06;1.57;;;1.30;;
8488;SDS011;4281;45.772;12.852;2023-07-31T04:11:34;1.70;;;1.53;;
8488;SDS011;4281;45.772;12.852;2023-07-31T04:14:02;1.57;;;1.40;;
8488;SDS011;4281;45.772;12.852;2023-07-31T04:16:31;1.37;;;1.27;;
8488;SDS011;4281;45.772;12.852;2023-07-31T04:18:59;1.60;;;1.40;;
8488;SDS011;4281;45.772;12.852;2023-07-31T04:21:29;1.57;;;1.40;;
8488;SDS011;4281;45.772;12.852;2023-07-31T04:23:57;1.60;;;1.50;;
8488;SDS011;4281;45.772;12.852;2023-07-31T04:26:24;1.70;;;1.47;;
8488;SDS011;4281;45.772;12.852;2023-07-31T04:28:52;1.80;;;1.70;;
8488;SDS011;4281;45.772;12.852;2023-07-31T04:31:20;1.87;;;1.67;;
8488;SDS011;4281;45.772;12.852;2023-07-31T04:33:50;2.47;;;1.60;;
8488;SDS011;4281;45.772;12.852;2023-07-31T04:36:17;2.90;;;1.57;;
8488;SDS011;4281;45.772;12.852;2023-07-31T04:38:45;3.13;;;1.90;;
8488;SDS011;4281;45.772;12.852;2023-07-31T04:41:13;2.07;;;1.80;;
8488;SDS011;4281;45.772;12.852;2023-07-31T04:43:41;2.73;;;2.10;;
8488;SDS011;4281;45.772;12.852;2023-07-31T04:46:09;2.87;;;1.90;;
8488;SDS011;4281;45.772;12.852;2023-07-31T04:48:37;3.87;;;1.70;;
8488;SDS011;4281;45.772;12.852;2023-07-31T04:51:06;2.13;;;1.93;;
8488;SDS011;4281;45.772;12.852;2023-07-31T04:53:35;1.70;;;1.60;;
8488;SDS011;4281;45.772;12.852;2023-07-31T04:56:03;1.73;;;1.63;;
8488;SDS011;4281;45.772;12.852;2023-07-31T04:58:31;1.60;;;1.50;;
8488;SDS011;4281;45.772;12.852;2023-07-31T05:00:59;2.10;;;1.60;;
8488;SDS011;4281;45.772;12.852;2023-07-31T05:03:27;1.50;;;1.37;;
8488;SDS011;4281;45.772;12.852;2023-07-31T05:05:55;1.97;;;1.30;;
8488;SDS011;4281;45.772;12.852;2023-07-31T05:08:24;1.63;;;1.50;;
8488;SDS011;4281;45.772;12.852;2023-07-31T05:10:52;1.80;;;1.70;;
8488;SDS011;4281;45.772;12.852;2023-07-31T05:13:20;1.77;;;1.60;;
8488;SDS011;4281;45.772;12.852;2023-07-31T05:15:48;3.53;;;1.47;;
8488;SDS011;4281;45.772;12.852;2023-07-31T05:18:16;1.50;;;1.40;;
8488;SDS011;4281;45.772;12.852;2023-07-31T05:20:44;3.43;;;1.50;;
8488;SDS011;4281;45.772;12.852;2023-07-31T05:23:12;1.97;;;1.50;;
8488;SDS011;4281;45.772;12.852;2023-07-31T05:25:42;1.33;;;1.23;;
8488;SDS011;4281;45.772;12.852;2023-07-31T05:28:11;1.87;;;1.43;;
8488;SDS011;4281;45.772;12.852;2023-07-31T05:30:39;1.73;;;1.60;;
8488;SDS011;4281;45.772;12.852;2023-07-31T05:33:07;2.17;;;1.37;;
8488;SDS011;4281;45.772;12.852;2023-07-31T05:35:37;2.53;;;1.60;;
8488;SDS011;4281;45.772;12.852;2023-07-31T05:38:05;2.23;;;1.40;;
8488;SDS011;4281;45.772;12.852;2023-07-31T05:40:33;1.70;;;1.60;;
8488;SDS011;4281;45.772;12.852;2023-07-31T05:43:03;1.50;;;1.40;;
8488;SDS011;4281;45.772;12.852;2023-07-31T05:45:32;1.40;;;1.30;;
8488;SDS011;4281;45.772;12.852;2023-07-31T05:48:00;1.90;;;1.27;;
8488;SDS011;4281;45.772;12.852;2023-07-31T05:50:29;1.80;;;1.43;;
8488;SDS011;4281;45.772;12.852;2023-07-31T05:52:57;3.03;;;1.37;;
8488;SDS011;4281;45.772;12.852;2023-07-31T05:55:25;1.80;;;1.60;;
8488;SDS011;4281;45.772;12.852;2023-07-31T05:57:54;1.73;;;1.30;;
8488;SDS011;4281;45.772;12.852;2023-07-31T06:00:26;2.47;;;1.60;;
8488;SDS011;4281;45.772;12.852;2023-07-31T06:02:55;1.70;;;1.60;;
8488;SDS011;4281;45.772;12.852;2023-07-31T06:05:23;2.43;;;1.40;;
8488;SDS011;4281;45.772;12.852;2023-07-31T06:07:51;2.03;;;1.33;;
8488;SDS011;4281;45.772;12.852;2023-07-31T06:10:19;1.53;;;1.33;;
8488;SDS011;4281;45.772;12.852;2023-07-31T06:12:46;1.50;;;1.40;;
8488;SDS011;4281;45.772;12.852;2023-07-31T06:15:14;1.97;;;1.30;;
8488;SDS011;4281;45.772;12.852;2023-07-31T06:17:44;1.73;;;1.63;;
8488;SDS011;4281;45.772;12.852;2023-07-31T06:20:12;1.50;;;1.40;;
8488;SDS011;4281;45.772;12.852;2023-07-31T06:22:39;1.73;;;1.60;;
8488;SDS011;4281;45.772;12.852;2023-07-31T06:25:07;1.57;;;1.47;;
8488;SDS011;4281;45.772;12.852;2023-07-31T06:27:41;1.50;;;1.40;;
8488;SDS011;4281;45.772;12.852;2023-07-31T06:30:09;1.93;;;1.50;;
8488;SDS011;4281;45.772;12.852;2023-07-31T06:32:38;1.50;;;1.40;;
8488;SDS011;4281;45.772;12.852;2023-07-31T06:35:08;1.50;;;1.40;;
8488;SDS011;4281;45.772;12.852;2023-07-31T06:37:36;2.13;;;1.30;;
8488;SDS011;4281;45.772;12.852;2023-07-31T06:40:07;1.63;;;1.53;;
8488;SDS011;4281;45.772;12.852;2023-07-31T06:42:36;1.50;;;1.40;;
8488;SDS011;4281;45.772;12.852;2023-07-31T06:45:04;1.57;;;1.47;;
8488;SDS011;4281;45.772;12.852;2023-07-31T06:47:33;1.50;;;1.40;;
8488;SDS011;4281;45.772;12.852;2023-07-31T06:50:01;1.70;;;1.60;;
8488;SDS011;4281;45.772;12.852;2023-07-31T06:52:30;1.53;;;1.43;;
8488;SDS011;4281;45.772;12.852;2023-07-31T06:55:01;2.30;;;1.70;;
8488;SDS011;4281;45.772;12.852;2023-07-31T06:57:30;1.67;;;1.50;;
8488;SDS011;4281;45.772;12.852;2023-07-31T06:59:59;1.77;;;1.67;;
8488;SDS011;4281;45.772;12.852;2023-07-31T07:02:27;3.43;;;1.93;;
8488;SDS011;4281;45.772;12.852;2023-07-31T07:04:55;2.70;;;2.50;;
8488;SDS011;4281;45.772;12.852;2023-07-31T07:07:23;2.13;;;1.97;;
8488;SDS011;4281;45.772;12.852;2023-07-31T07:09:52;1.93;;;1.80;;
8488;SDS011;4281;45.772;12.852;2023-07-31T07:15:17;2.50;;;1.90;;
8488;SDS011;4281;45.772;12.852;2023-07-31T07:17:45;2.50;;;1.97;;
8488;SDS011;4281;45.772;12.852;2023-07-31T07:20:13;3.90;;;2.60;;
8488;SDS011;4281;45.772;12.852;2023-07-31T07:22:41;4.30;;;2.57;;
8488;SDS011;4281;45.772;12.852;2023-07-31T07:25:11;2.50;;;2.30;;
8488;SDS011;4281;45.772;12.852;2023-07-31T07:27:39;2.40;;;1.97;;
8488;SDS011;4281;45.772;12.852;2023-07-31T07:30:07;2.20;;;1.67;;
8488;SDS011;4281;45.772;12.852;2023-07-31T07:32:35;2.20;;;1.60;;
8488;SDS011;4281;45.772;12.852;2023-07-31T07:35:04;1.70;;;1.60;;
8488;SDS011;4281;45.772;12.852;2023-07-31T07:37:33;1.80;;;1.70;;
8488;SDS011;4281;45.772;12.852;2023-07-31T07:40:01;1.73;;;1.63;;
8488;SDS011;4281;45.772;12.852;2023-07-31T07:42:31;2.30;;;2.10;;
8488;SDS011;4281;45.772;12.852;2023-07-31T07:44:59;1.87;;;1.73;;
8488;SDS011;4281;45.772;12.852;2023-07-31T07:47:27;1.70;;;1.60;;
8488;SDS011;4281;45.772;12.852;2023-07-31T07:49:55;1.80;;;1.70;;
8488;SDS011;4281;45.772;12.852;2023-07-31T07:52:23;1.80;;;1.70;;
8488;SDS011;4281;45.772;12.852;2023-07-31T07:54:51;1.70;;;1.60;;
8488;SDS011;4281;45.772;12.852;2023-07-31T07:57:19;2.40;;;1.73;;
8488;SDS011;4281;45.772;12.852;2023-07-31T07:59:49;2.50;;;1.80;;
8488;SDS011;4281;45.772;12.852;2023-07-31T08:02:17;1.60;;;1.50;;
8488;SDS011;4281;45.772;12.852;2023-07-31T08:04:45;1.83;;;1.73;;
8488;SDS011;4281;45.772;12.852;2023-07-31T08:07:13;1.93;;;1.50;;
8488;SDS011;4281;45.772;12.852;2023-07-31T08:09:42;2.30;;;1.90;;
8488;SDS011;4281;45.772;12.852;2023-07-31T08:12:10;2.17;;;1.60;;
8488;SDS011;4281;45.772;12.852;2023-07-31T08:14:38;1.60;;;1.50;;
8488;SDS011;4281;45.772;12.852;2023-07-31T08:17:08;2.53;;;1.80;;
8488;SDS011;4281;45.772;12.852;2023-07-31T08:19:36;1.70;;;1.60;;
8488;SDS011;4281;45.772;12.852;2023-07-31T08:22:04;1.80;;;1.70;;
8488;SDS011;4281;45.772;12.852;2023-07-31T08:24:32;1.73;;;1.63;;
8488;SDS011;4281;45.772;12.852;2023-07-31T08:27:01;2.43;;;1.90;;
8488;SDS011;4281;45.772;12.852;2023-07-31T08:29:29;1.90;;;1.80;;
8488;SDS011;4281;45.772;12.852;2023-07-31T08:31:57;1.60;;;1.50;;
8488;SDS011;4281;45.772;12.852;2023-07-31T08:34:26;1.80;;;1.70;;
8488;SDS011;4281;45.772;12.852;2023-07-31T08:36:54;1.90;;;1.80;;
8488;SDS011;4281;45.772;12.852;2023-07-31T08:39:23;1.83;;;1.73;;
8488;SDS011;4281;45.772;12.852;2023-07-31T08:41:51;1.83;;;1.73;;
8488;SDS011;4281;45.772;12.852;2023-07-31T08:44:19;1.83;;;1.73;;
8488;SDS011;4281;45.772;12.852;2023-07-31T08:46:47;1.90;;;1.80;;
8488;SDS011;4281;45.772;12.852;2023-07-31T08:49:16;1.80;;;1.70;;
8488;SDS011;4281;45.772;12.852;2023-07-31T08:51:46;1.70;;;1.60;;
8488;SDS011;4281;45.772;12.852;2023-07-31T08:54:17;1.70;;;1.60;;
8488;SDS011;4281;45.772;12.852;2023-07-31T08:56:45;1.80;;;1.70;;
8488;SDS011;4281;45.772;12.852;2023-07-31T08:59:13;1.60;;;1.50;;
8488;SDS011;4281;45.772;12.852;2023-07-31T09:01:44;2.33;;;2.20;;
8488;SDS011;4281;45.772;12.852;2023-07-31T09:04:16;2.03;;;1.70;;
8488;SDS011;4281;45.772;12.852;2023-07-31T09:06:44;2.07;;;1.60;;
8488;SDS011;4281;45.772;12.852;2023-07-31T09:09:16;1.70;;;1.60;;
8488;SDS011;4281;45.772;12.852;2023-07-31T09:11:45;2.00;;;1.90;;
8488;SDS011;4281;45.772;12.852;2023-07-31T09:14:14;1.77;;;1.67;;
8488;SDS011;4281;45.772;12.852;2023-07-31T09:16:53;1.70;;;1.60;;
8488;SDS011;4281;45.772;12.852;2023-07-31T09:19:25;1.87;;;1.67;;
8488;SDS011;4281;45.772;12.852;2023-07-31T09:21:54;2.53;;;1.97;;
8488;SDS011;4281;45.772;12.852;2023-07-31T09:24:27;1.70;;;1.60;;
8488;SDS011;4281;45.772;12.852;2023-07-31T09:26:57;1.70;;;1.60;;
8488;SDS011;4281;45.772;12.852;2023-07-31T09:29:27;1.80;;;1.70;;
8488;SDS011;4281;45.772;12.852;2023-07-31T09:31:56;1.77;;;1.67;;
8488;SDS011;4281;45.772;12.852;2023-07-31T09:34:28;2.20;;;2.00;;
8488;SDS011;4281;45.772;12.852;2023-07-31T09:36:58;1.87;;;1.70;;
8488;SDS011;4281;45.772;12.852;2023-07-31T09:39:30;1.73;;;1.63;;
8488;SDS011;4281;45.772;12.852;2023-07-31T09:41:58;2.60;;;1.70;;
8488;SDS011;4281;45.772;12.852;2023-07-31T09:44:37;2.50;;;1.90;;
8488;SDS011;4281;45.772;12.852;2023-07-31T09:47:07;2.33;;;1.80;;
8488;SDS011;4281;45.772;12.852;2023-07-31T09:49:48;1.60;;;1.50;;
8488;SDS011;4281;45.772;12.852;2023-07-31T09:52:19;1.87;;;1.77;;
8488;SDS011;4281;45.772;12.852;2023-07-31T09:54:48;1.67;;;1.57;;
8488;SDS011;4281;45.772;12.852;2023-07-31T09:57:16;2.10;;;1.93;;
8488;SDS011;4281;45.772;12.852;2023-07-31T09:59:46;1.87;;;1.60;;
8488;SDS011;4281;45.772;12.852;2023-07-31T10:02:17;2.00;;;1.90;;
8488;SDS011;4281;45.772;12.852;2023-07-31T10:04:49;2.20;;;1.90;;
8488;SDS011;4281;45.772;12.852;2023-07-31T10:07:18;2.07;;;1.60;;
8488;SDS011;4281;45.772;12.852;2023-07-31T10:09:48;2.80;;;1.60;;
8488;SDS011;4281;45.772;12.852;2023-07-31T10:12:17;1.77;;;1.63;;
8488;SDS011;4281;45.772;12.852;2023-07-31T10:14:47;2.43;;;1.70;;
8488;SDS011;4281;45.772;12.852;2023-07-31T10:17:15;1.90;;;1.80;;
8488;SDS011;4281;45.772;12.852;2023-07-31T10:19:45;2.03;;;1.73;;
8488;SDS011;4281;45.772;12.852;2023-07-31T10:22:13;1.80;;;1.70;;
8488;SDS011;4281;45.772;12.852;2023-07-31T10:24:42;2.20;;;1.60;;
8488;SDS011;4281;45.772;12.852;2023-07-31T10:27:12;1.80;;;1.70;;
8488;SDS011;4281;45.772;12.852;2023-07-31T10:29:41;1.70;;;1.60;;
8488;SDS011;4281;45.772;12.852;2023-07-31T10:32:10;1.87;;;1.77;;
8488;SDS011;4281;45.772;12.852;2023-07-31T10:34:39;1.67;;;1.57;;
8488;SDS011;4281;45.772;12.852;2023-07-31T10:39:58;1.60;;;1.50;;
8488;SDS011;4281;45.772;12.852;2023-07-31T10:42:29;1.80;;;1.70;;
8488;SDS011;4281;45.772;12.852;2023-07-31T10:44:58;1.93;;;1.73;;
8488;SDS011;4281;45.772;12.852;2023-07-31T10:47:27;1.80;;;1.60;;
8488;SDS011;4281;45.772;12.852;2023-07-31T10:50:16;1.83;;;1.73;;
8488;SDS011;4281;45.772;12.852;2023-07-31T10:52:48;1.50;;;1.40;;
8488;SDS011;4281;45.772;12.852;2023-07-31T10:55:24;1.60;;;1.50;;
8488;SDS011;4281;45.772;12.852;2023-07-31T10:57:55;1.60;;;1.50;;
8488;SDS011;4281;45.772;12.852;2023-07-31T11:00:25;1.57;;;1.47;;
8488;SDS011;4281;45.772;12.852;2023-07-31T11:02:58;1.57;;;1.47;;
8488;SDS011;4281;45.772;12.852;2023-07-31T11:05:44;1.80;;;1.70;;
8488;SDS011;4281;45.772;12.852;2023-07-31T11:08:21;1.60;;;1.50;;
8488;SDS011;4281;45.772;12.852;2023-07-31T11:10:50;1.80;;;1.70;;
8488;SDS011;4281;45.772;12.852;2023-07-31T11:13:22;1.50;;;1.40;;
8488;SDS011;4281;45.772;12.852;2023-07-31T11:15:50;1.60;;;1.50;;
8488;SDS011;4281;45.772;12.852;2023-07-31T11:18:18;1.50;;;1.40;;
8488;SDS011;4281;45.772;12.852;2023-07-31T11:20:46;1.70;;;1.60;;
8488;SDS011;4281;45.772;12.852;2023-07-31T11:23:15;1.70;;;1.60;;
8488;SDS011;4281;45.772;12.852;2023-07-31T11:25:45;1.47;;;1.37;;
8488;SDS011;4281;45.772;12.852;2023-07-31T11:28:13;1.63;;;1.53;;
8488;SDS011;4281;45.772;12.852;2023-07-31T11:30:45;1.37;;;1.27;;
8488;SDS011;4281;45.772;12.852;2023-07-31T11:33:13;1.80;;;1.70;;
8488;SDS011;4281;45.772;12.852;2023-07-31T11:35:42;1.40;;;1.40;;
8488;SDS011;4281;45.772;12.852;2023-07-31T11:38:11;1.57;;;1.47;;
8488;SDS011;4281;45.772;12.852;2023-07-31T11:40:43;1.70;;;1.60;;
8488;SDS011;4281;45.772;12.852;2023-07-31T11:43:12;1.70;;;1.60;;
8488;SDS011;4281;45.772;12.852;2023-07-31T11:45:45;1.47;;;1.37;;
8488;SDS011;4281;45.772;12.852;2023-07-31T11:48:21;1.77;;;1.67;;
8488;SDS011;4281;45.772;12.852;2023-07-31T11:50:50;1.60;;;1.50;;
8488;SDS011;4281;45.772;12.852;2023-07-31T11:53:23;1.50;;;1.40;;
8488;SDS011;4281;45.772;12.852;2023-07-31T11:55:53;1.60;;;1.50;;
8488;SDS011;4281;45.772;12.852;2023-07-31T11:58:22;1.50;;;1.40;;
8488;SDS011;4281;45.772;12.852;2023-07-31T12:00:51;1.93;;;1.43;;
8488;SDS011;4281;45.772;12.852;2023-07-31T12:03:19;1.77;;;1.67;;
8488;SDS011;4281;45.772;12.852;2023-07-31T12:05:48;1.60;;;1.50;;
8488;SDS011;4281;45.772;12.852;2023-07-31T12:08:16;2.77;;;1.40;;
8488;SDS011;4281;45.772;12.852;2023-07-31T12:10:44;1.50;;;1.40;;
8488;SDS011;4281;45.772;12.852;2023-07-31T12:13:19;1.63;;;1.53;;
8488;SDS011;4281;45.772;12.852;2023-07-31T12:15:48;1.37;;;1.27;;
8488;SDS011;4281;45.772;12.852;2023-07-31T12:18:20;1.50;;;1.40;;
8488;SDS011;4281;45.772;12.852;2023-07-31T12:20:48;1.50;;;1.40;;
8488;SDS011;4281;45.772;12.852;2023-07-31T12:23:21;1.63;;;1.40;;
8488;SDS011;4281;45.772;12.852;2023-07-31T12:26:01;2.10;;;1.37;;
8488;SDS011;4281;45.772;12.852;2023-07-31T12:28:30;1.60;;;1.50;;
8488;SDS011;4281;45.772;12.852;2023-07-31T12:30:59;1.47;;;1.37;;
8488;SDS011;4281;45.772;12.852;2023-07-31T12:33:32;2.00;;;1.63;;
8488;SDS011;4281;45.772;12.852;2023-07-31T12:36:00;1.50;;;1.40;;
8488;SDS011;4281;45.772;12.852;2023-07-31T12:38:29;1.53;;;1.40;;
8488;SDS011;4281;45.772;12.852;2023-07-31T12:40:58;1.50;;;1.40;;
8488;SDS011;4281;45.772;12.852;2023-07-31T12:43:26;1.87;;;1.77;;
8488;SDS011;4281;45.772;12.852;2023-07-31T12:45:54;2.00;;;1.60;;
8488;SDS011;4281;45.772;12.852;2023-07-31T12:48:23;1.60;;;1.50;;
8488;SDS011;4281;45.772;12.852;2023-07-31T12:50:53;1.60;;;1.50;;
8488;SDS011;4281;45.772;12.852;2023-07-31T12:53:21;4.10;;;1.50;;
8488;SDS011;4281;45.772;12.852;2023-07-31T12:55:49;1.30;;;1.20;;
8488;SDS011;4281;45.772;12.852;2023-07-31T12:58:17;1.50;;;1.40;;
8488;SDS011;4281;45.772;12.852;2023-07-31T13:00:45;1.93;;;1.63;;
8488;SDS011;4281;45.772;12.852;2023-07-31T13:03:13;1.40;;;1.30;;
8488;SDS011;4281;45.772;12.852;2023-07-31T13:05:42;1.47;;;1.37;;
8488;SDS011;4281;45.772;12.852;2023-07-31T13:08:11;1.30;;;1.20;;
8488;SDS011;4281;45.772;12.852;2023-07-31T13:10:41;1.20;;;1.10;;
8488;SDS011;4281;45.772;12.852;2023-07-31T13:16:10;1.30;;;1.20;;
8488;SDS011;4281;45.772;12.852;2023-07-31T13:18:39;1.40;;;1.30;;
8488;SDS011;4281;45.772;12.852;2023-07-31T13:21:07;1.60;;;1.50;;
8488;SDS011;4281;45.772;12.852;2023-07-31T13:23:37;1.20;;;1.13;;
8488;SDS011;4281;45.772;12.852;2023-07-31T13:26:05;1.97;;;1.37;;
8488;SDS011;4281;45.772;12.852;2023-07-31T13:28:33;1.43;;;1.33;;
8488;SDS011;4281;45.772;12.852;2023-07-31T13:31:02;1.30;;;1.20;;
8488;SDS011;4281;45.772;12.852;2023-07-31T13:33:30;1.30;;;1.20;;
8488;SDS011;4281;45.772;12.852;2023-07-31T13:36:04;1.50;;;1.40;;
8488;SDS011;4281;45.772;12.852;2023-07-31T13:38:32;1.53;;;1.43;;
8488;SDS011;4281;45.772;12.852;2023-07-31T13:41:02;1.00;;;1.00;;
8488;SDS011;4281;45.772;12.852;2023-07-31T13:43:31;1.40;;;1.30;;
8488;SDS011;4281;45.772;12.852;2023-07-31T13:46:00;1.40;;;1.20;;
8488;SDS011;4281;45.772;12.852;2023-07-31T13:48:34;1.30;;;1.20;;
8488;SDS011;4281;45.772;12.852;2023-07-31T13:51:02;1.60;;;1.50;;
8488;SDS011;4281;45.772;12.852;2023-07-31T13:53:30;1.23;;;1.20;;
8488;SDS011;4281;45.772;12.852;2023-07-31T13:55:59;1.37;;;1.27;;
8488;SDS011;4281;45.772;12.852;2023-07-31T13:58:29;3.77;;;1.40;;
8488;SDS011;4281;45.772;12.852;2023-07-31T14:00:57;1.50;;;1.40;;
8488;SDS011;4281;45.772;12.852;2023-07-31T14:03:25;2.70;;;1.60;;
8488;SDS011;4281;45.772;12.852;2023-07-31T14:05:54;1.53;;;1.43;;
8488;SDS011;4281;45.772;12.852;2023-07-31T14:08:23;1.47;;;1.37;;
8488;SDS011;4281;45.772;12.852;2023-07-31T14:10:51;2.93;;;1.50;;
8488;SDS011;4281;45.772;12.852;2023-07-31T14:13:19;1.40;;;1.30;;
8488;SDS011;4281;45.772;12.852;2023-07-31T14:15:49;1.53;;;1.43;;
8488;SDS011;4281;45.772;12.852;2023-07-31T14:18:17;1.30;;;1.20;;
8488;SDS011;4281;45.772;12.852;2023-07-31T14:20:45;1.40;;;1.30;;
8488;SDS011;4281;45.772;12.852;2023-07-31T14:23:17;1.67;;;1.57;;
8488;SDS011;4281;45.772;12.852;2023-07-31T14:25:46;1.47;;;1.30;;
8488;SDS011;4281;45.772;12.852;2023-07-31T14:28:14;1.33;;;1.23;;
8488;SDS011;4281;45.772;12.852;2023-07-31T14:30:42;1.60;;;1.43;;
8488;SDS011;4281;45.772;12.852;2023-07-31T14:33:12;1.97;;;1.50;;
8488;SDS011;4281;45.772;12.852;2023-07-31T14:35:40;1.30;;;1.20;;
8488;SDS011;4281;45.772;12.852;2023-07-31T14:38:09;1.50;;;1.40;;
8488;SDS011;4281;45.772;12.852;2023-07-31T14:40:37;1.57;;;1.47;;
8488;SDS011;4281;45.772;12.852;2023-07-31T14:43:05;1.60;;;1.50;;
8488;SDS011;4281;45.772;12.852;2023-07-31T14:45:33;1.53;;;1.37;;
8488;SDS011;4281;45.772;12.852;2023-07-31T14:48:03;1.37;;;1.27;;
8488;SDS011;4281;45.772;12.852;2023-07-31T14:50:33;2.03;;;1.30;;
8488;SDS011;4281;45.772;12.852;2023-07-31T14:53:02;1.40;;;1.30;;
8488;SDS011;4281;45.772;12.852;2023-07-31T14:55:31;1.43;;;1.33;;
8488;SDS011;4281;45.772;12.852;2023-07-31T14:57:59;1.40;;;1.30;;
8488;SDS011;4281;45.772;12.852;2023-07-31T15:00:28;1.50;;;1.40;;
8488;SDS011;4281;45.772;12.852;2023-07-31T15:02:57;1.30;;;1.20;;
8488;SDS011;4281;45.772;12.852;2023-07-31T15:05:28;1.40;;;1.30;;
8488;SDS011;4281;45.772;12.852;2023-07-31T15:07:57;1.50;;;1.40;;
8488;SDS011;4281;45.772;12.852;2023-07-31T15:10:25;1.43;;;1.33;;
8488;SDS011;4281;45.772;12.852;2023-07-31T15:12:54;1.40;;;1.30;;
8488;SDS011;4281;45.772;12.852;2023-07-31T15:15:22;1.30;;;1.20;;
8488;SDS011;4281;45.772;12.852;2023-07-31T15:17:51;1.50;;;1.40;;
8488;SDS011;4281;45.772;12.852;2023-07-31T15:20:19;1.77;;;1.67;;